Latest Coastal Weather Observations for Mandurah

IDW60701

Issued at 5:15 am WST Wednesday 3 September 2014 (issued every 10 minutes, with the page automatically refreshed every 10 minutes)

About coastal observations | Map of coastal stations | Coastal observations for WA | Marine services | Other Formats
Station Details ID: 009977 Name: MANDURAH Lat: -32.52 Lon: 115.71 Height: 3.0 m
Data from the previous 72 hours. | See also: Recent months at Mandurah
Date/Time
WST
Temp

°C
Wind Pressure Rain
since 9am
mm
Weather Cloud Vis
km
Sea
Height
m
Swell
Dir
 
Speed
knots
Gust
knots
hPa Trend Height
m
Period
s
Dir
03/05:00am 13.8 S 6 8 1020.9 - 0.0 - - - - - - -
03/04:30am 14.0 S 5 8 1020.4 - 0.0 - - - - - - -
03/04:00am 14.2 SSE 6 10 1020.2 - 0.0 - - - - - - -
03/03:30am 14.3 S 6 9 1020.2 - 0.0 - - - - - - -
03/03:00am 14.6 S 7 10 1020.1 - 0.0 - - - - - - -
03/02:30am 14.8 S 6 9 1020.1 - 0.0 - - - - - - -
03/02:00am 15.0 S 5 9 1020.3 - 0.0 - - - - - - -
03/01:30am 15.3 S 7 12 1020.0 - 0.0 - - - - - - -
03/01:00am 15.5 S 6 10 1019.8 - 0.0 - - - - - - -
03/12:30am 15.9 SSE 8 12 1019.7 - 0.0 - - - - - - -
03/12:00am 16.2 S 8 13 1019.6 - 0.0 - - - - - - -
 
Date/Time
WST
Temp

°C
Wind Pressure Rain
since 9am
mm
Weather Cloud Vis
km
Sea
Height
m
Swell
Dir
 
Speed
knots
Gust
knots
hPa Trend Height
m
Period
s
Dir
02/11:30pm 16.4 S 4 9 1019.5 - 0.0 - - - - - - -
02/11:00pm 16.4 S 3 4 1019.4 - 0.0 - - - - - - -
02/10:30pm 16.6 E 2 3 1019.8 - 0.0 - - - - - - -
02/10:00pm 16.6 E 2 3 1019.6 - 0.0 - - - - - - -
02/09:30pm 16.8 ESE 3 4 1019.6 - 0.0 - - - - - - -
02/09:00pm 16.9 ESE 3 4 1019.6 - 0.0 - - - - - - -
02/08:30pm 17.3 SSE 3 4 1019.3 - 0.0 - - - - - - -
02/08:00pm 17.1 S 2 2 1019.1 - 0.0 - - - - - - -
02/07:30pm 17.4 S 2 3 1018.6 - 0.0 - - - - - - -
02/07:00pm 17.9 S 2 3 1018.2 - 0.0 - - - - - - -
02/06:30pm 18.1 S 2 3 1018.1 - 0.0 - - - - - - -
02/06:00pm 18.4 SSW 3 5 1017.6 - 0.0 - - - - - - -
02/05:30pm 18.4 SW 5 7 1017.5 - 0.0 - - - - - - -
02/05:00pm 18.7 SW 3 6 1016.8 - 0.0 - - - - - - -
02/04:30pm 18.8 WSW 4 5 1016.3 - 0.0 - - - - - - -
02/04:00pm 18.7 W 4 5 1016.1 - 0.0 - - - - - - -
02/03:30pm 19.1 W 4 6 1015.7 - 0.0 - - - - - - -
02/03:00pm 18.7 NW 4 4 1015.7 - 0.0 - - - - - - -
02/02:30pm 18.9 NW 3 4 1015.6 - 0.0 - - - - - - -
02/02:00pm 19.0 W 4 6 1015.4 - 0.0 - - - - - - -
02/01:30pm 19.5 W 5 6 1015.3 - 0.0 - - - - - - -
02/01:00pm 20.4 W 4 7 1015.3 - 0.0 - - - - - - -
02/12:30pm 21.0 NW 2 3 1015.1 - 0.0 - - - - - - -
02/12:00pm 20.8 N 2 2 1015.5 - 0.0 - - - - - - -
02/11:30am 19.7 N 2 3 1015.9 - 0.0 - - - - - - -
02/11:00am 20.1 CALM 0 2 1016.4 - 0.0 - - - - - - -
02/10:30am 19.1 E 2 4 1016.6 - 0.0 - - - - - - -
02/10:00am 18.0 NE 3 6 1016.7 - 0.0 - - - - - - -
02/09:30am 16.6 CALM 0 0 1017.1 - 0.0 - - - - - - -
02/09:00am 15.8 ENE 3 4 1016.5 - 0.0 - - - - - - -
02/08:30am 14.5 E 2 3 1016.2 - 0.0 - - - - - - -
02/08:00am 13.9 ESE 3 4 1016.1 - 0.0 - - - - - - -
02/07:30am 13.5 ESE 2 3 1016.8 - 0.0 - - - - - - -
02/07:00am 13.5 CALM 0 0 1016.5 - 0.0 - - - - - - -
02/06:30am 13.7 SE 2 3 1016.5 - 0.0 - - - - - - -
02/06:00am 13.7 SE 1 2 1016.8 - 0.0 - - - - - - -
02/05:30am 13.6 ESE 2 3 1016.7 - 0.0 - - - - - - -
02/05:00am 13.8 SE 2 3 1017.0 - 0.0 - - - - - - -
02/04:30am 13.7 SE 3 6 1016.7 - 0.0 - - - - - - -
02/04:00am 13.8 SE 4 5 1016.8 - 0.0 - - - - - - -
02/03:30am 14.1 SE 5 6 1016.2 - 0.0 - - - - - - -
02/03:00am 14.3 SSE 4 5 1017.0 - 0.0 - - - - - - -
02/02:30am 14.2 ESE 3 3 1017.2 - 0.0 - - - - - - -
02/02:00am 14.1 E 2 4 1017.9 - 0.0 - - - - - - -
02/01:30am 14.1 E 1 2 1018.3 - 0.0 - - - - - - -
02/01:00am 14.2 E 2 3 1018.7 - 0.0 - - - - - - -
02/12:30am 14.4 ENE 6 8 1018.6 - 0.0 - - - - - - -
02/12:00am 14.0 E 3 5 1018.9 - 0.0 - - - - - - -
 
Date/Time
WST
Temp

°C
Wind Pressure Rain
since 9am
mm
Weather Cloud Vis
km
Sea
Height
m
Swell
Dir
 
Speed
knots
Gust
knots
hPa Trend Height
m
Period
s
Dir
01/11:30pm 14.2 SE 3 5 1019.5 - 0.0 - - - - - - -
01/11:00pm 14.1 SSE 5 8 1019.7 - 0.0 - - - - - - -
01/10:30pm 14.5 SSE 4 7 1020.0 - 0.0 - - - - - - -
01/10:00pm 14.3 SE 5 7 1020.0 - 0.0 - - - - - - -
01/09:30pm 14.1 SE 3 5 1020.5 - 0.0 - - - - - - -
01/09:00pm 13.8 ESE 3 4 1020.8 - 0.0 - - - - - - -
01/08:30pm 14.4 ESE 4 6 1020.4 - 0.0 - - - - - - -
01/08:00pm 15.3 SE 3 4 1020.6 - 0.0 - - - - - - -
01/07:30pm 15.7 SSE 5 7 1020.6 - 0.0 - - - - - - -
01/07:00pm 15.8 SSE 4 6 1020.8 - 0.0 - - - - - - -
01/06:30pm 16.0 S 2 4 1021.0 - 0.0 - - - - - - -
01/06:00pm 16.3 SW 3 5 1021.2 - 0.0 - - - - - - -
01/05:30pm 17.6 WSW 5 8 1020.9 - 0.0 - - - - - - -
01/05:00pm 18.4 SW 5 7 1020.2 - 0.0 - - - - - - -
01/04:30pm 18.3 N 2 4 1020.5 - 0.0 - - - - - - -
01/04:00pm 19.6 NE 5 8 1020.1 - 0.0 - - - - - - -
01/03:30pm 18.4 N 5 8 1020.7 - 0.0 - - - - - - -
01/03:00pm 19.1 N 3 5 1020.6 - 0.0 - - - - - - -
01/02:30pm 18.6 NE 5 9 1020.6 - 0.0 - - - - - - -
01/02:00pm 19.3 NNE 4 7 1020.6 - 0.0 - - - - - - -
01/01:30pm 19.1 NNE 5 8 1021.0 - 0.0 - - - - - - -
01/01:00pm 18.7 ENE 4 9 1021.4 - 0.0 - - - - - - -
01/12:30pm 18.1 NNE 5 10 1021.9 - 0.0 - - - - - - -
01/12:00pm 18.2 NE 5 9 1022.8 - 0.0 - - - - - - -
01/11:30am 17.7 NE 6 9 1023.3 - 0.0 - - - - - - -
01/11:00am 17.2 ENE 6 11 1023.4 - 0.0 - - - - - - -
01/10:30am 15.8 ENE 8 12 1023.7 - 0.0 - - - - - - -
01/10:00am 15.4 ENE 8 12 1023.8 - 0.0 - - - - - - -
01/09:30am 14.2 ENE 8 11 1023.9 - 0.0 - - - - - - -
01/09:00am 12.7 E 5 9 1024.1 - 0.0 - - - - - - -
01/08:30am 10.8 E 4 10 1023.9 - 0.0 - - - - - - -
01/08:00am 9.7 E 2 4 1024.3 - 0.0 - - - - - - -
01/07:30am 8.9 ESE 3 5 1023.9 - 0.0 - - - - - - -
01/07:00am 8.7 SE 3 4 1024.0 - 0.0 - - - - - - -
01/06:30am 8.8 SE 4 6 1023.6 - 0.0 - - - - - - -
01/06:00am 8.8 SE 4 5 1022.9 - 0.0 - - - - - - -
01/05:30am 8.7 SE 4 5 1022.4 - 0.0 - - - - - - -
01/05:00am 8.5 ESE 4 6 1022.3 - 0.0 - - - - - - -
01/04:30am 8.7 ESE 4 5 1022.4 - 0.0 - - - - - - -
01/04:00am 9.1 ESE 5 8 1022.1 - 0.0 - - - - - - -
01/03:30am 9.4 ESE 6 8 1022.0 - 0.0 - - - - - - -
01/03:00am 9.4 ESE 5 7 1022.1 - 0.0 - - - - - - -
01/02:30am 9.8 SE 5 7 1022.2 - 0.0 - - - - - - -
01/02:00am 10.3 SE 5 7 1022.2 - 0.0 - - - - - - -
01/01:30am 10.5 SE 4 6 1022.4 - 0.0 - - - - - - -
01/01:00am 11.1 SSE 7 10 1022.1 - 0.0 - - - - - - -
01/12:30am 11.5 SSE 6 9 1022.2 - 0.0 - - - - - - -
01/12:00am 12.0 SSE 5 7 1022.2 - 0.0 - - - - - - -
 
Date/Time
WST
Temp

°C
Wind Pressure Rain
since 9am
mm
Weather Cloud Vis
km
Sea
Height
m
Swell
Dir
 
Speed
knots
Gust
knots
hPa Trend Height
m
Period
s
Dir
31/11:30pm 12.5 SSE 6 9 1022.0 - 0.0 - - - - - - -
31/11:00pm 12.4 SE 5 8 1022.2 - 0.0 - - - - - - -
31/10:30pm 13.0 SSE 5 7 1022.5 - 0.0 - - - - - - -
31/10:00pm 12.3 ESE 3 5 1022.6 - 0.0 - - - - - - -
31/09:30pm 12.4 ESE 3 4 1022.5 - 0.0 - - - - - - -
31/09:00pm 14.5 SSE 5 8 1022.2 - 0.0 - - - - - - -
31/08:30pm 14.7 S 6 8 1022.0 - 0.0 - - - - - - -
31/08:00pm 14.8 S 5 7 1021.7 - 0.0 - - - - - - -
31/07:30pm 14.6 S 3 6 1021.3 - 0.0 - - - - - - -
31/07:00pm 14.6 S 4 7 1021.2 - 0.0 - - - - - - -
31/06:30pm 14.8 S 5 7 1020.9 - 0.0 - - - - - - -
31/06:00pm 15.1 S 5 9 1020.5 - 0.0 - - - - - - -
31/05:30pm 15.4 SSW 7 10 1020.5 - 0.0 - - - - - - -
31/05:00pm 16.0 S 6 9 1020.6 - 0.0 - - - - - - -
31/04:30pm 16.3 S 7 11 1020.2 - 0.0 - - - - - - -
31/04:00pm 16.7 S 9 13 1019.4 - 0.0 - - - - - - -
31/03:30pm 16.9 SSW 8 11 1019.3 - 0.0 - - - - - - -
31/03:00pm 17.2 SSW 7 11 1019.4 - 0.0 - - - - - - -
31/02:30pm 17.2 SSW 6 9 1019.0 - 0.0 - - - - - - -
31/02:00pm 17.1 S 4 8 1019.6 - 0.0 - - - - - - -
31/01:30pm 16.8 SSE 5 9 1019.5 - 0.0 - - - - - - -
31/01:00pm 16.7 S 4 8 1019.3 - 0.0 - - - - - - -
31/12:30pm 16.4 S 5 8 1019.4 - 0.0 - - - - - - -
31/12:00pm 16.3 SSE 6 9 1019.9 - 0.0 - - - - - - -
31/11:30am 16.0 S 7 9 1020.0 - 0.0 - - - - - - -
31/11:00am 15.3 SSE 5 10 1020.0 - 0.0 - - - - - - -
31/10:30am 14.7 SSE 7 10 1020.5 - 0.0 - - - - - - -
31/10:00am 14.6 SSE 7 9 1020.1 - 0.0 - - - - - - -
31/09:30am 14.3 SE 5 8 1020.4 - 0.0 - - - - - - -
31/09:00am 13.6 SE 5 7 1020.0 - 0.4 - - - - - - -
31/08:30am 12.7 SSE 5 7 1019.8 - 0.4 - - - - - - -
31/08:00am 12.0 SE 5 7 1019.5 - 0.4 - - - - - - -
31/07:30am 12.3 SE 6 8 1019.0 - 0.4 - - - - - - -
31/07:00am 12.1 SSE 4 5 1018.8 - 0.4 - - - - - - -
31/06:30am 11.8 SE 3 5 1018.3 - 0.4 - - - - - - -
31/06:00am 11.9 SSE 3 4 1018.2 - 0.4 - - - - - - -
31/05:30am 11.7 SE 3 4 1017.8 - 0.4 - - - - - - -

Other Formats:

Comma delimited format used in spreadsheet applications
http://www.bom.gov.au/fwo/IDW60701/IDW60701.94605.axf

JavaScript Object Notation format (JSON) in row-major order
http://www.bom.gov.au/fwo/IDW60701/IDW60701.94605.json